Boxy Lady — 9HYU9 — position and weather

sailwx.info

Track history (hours):
 
Tides and Currents Weather Stations Pressure Air Temp Water Temp Dewpoint Dewpoint Depression Visibility Wind Speed Wind Dir Waves Ship Positions

Boxy Lady

Last reported at 2018-Feb-21 11:49 UTC. Time now 2018-Feb-21 15:46 UTC.
Position N 36°10' W 005°25'.

Length 159 m; draft 10.2 m.

Type: Ship. MMSI: 249715000.

Date/timePositionNaut miles runAvg speedWind from/ knotsBaromVisibWave heightAir tempDewpointWater temp
2018-Feb-21 11:49N 36°10' W 005°25'0 0.0
2018-Feb-21 11:16N 36°10' W 005°25'0 0.0
2018-Feb-21 10:58N 36°10' W 005°25'0 0.0
2018-Feb-21 10:22N 36°10' W 005°25'0 1.0
2018-Feb-21 10:00N 36°09' W 005°25'2 4.8
2018-Feb-21 09:30N 36°07' W 005°24'5 9.0
2018-Feb-21 09:00N 36°03' W 005°21'1 1.8
2018-Feb-21 08:30N 36°03' W 005°22'5 9.5
2018-Feb-21 07:58N 35°59' W 005°25'12112.6
2018-Feb-20 22:20N 36°21' W 007°53'36 8.5
2018-Feb-20 18:08N 36°25' W 008°37'412.1
2018-Feb-20 17:48N 36°26' W 008°42'411.9
2018-Feb-20 17:30N 36°27' W 008°46'611.8
2018-Feb-20 16:59N 36°29' W 008°53'611.7
2018-Feb-20 16:30N 36°31' W 009°00'611.8
2018-Feb-20 16:01N 36°32' W 009°07'611.7
2018-Feb-20 15:30N 36°34' W 009°14'2311.3
2018-Feb-20 13:28N 36°51' W 009°33'711.7
2018-Feb-20 12:51N 36°58' W 009°35'512.2
2018-Feb-20 12:28N 37°03' W 009°36'511.8
2018-Feb-20 12:01N 37°08' W 009°37'611.7
2018-Feb-20 11:30N 37°14' W 009°39'611.8
2018-Feb-20 11:00N 37°20' W 009°41'611.8
2018-Feb-20 10:29N 37°26' W 009°43'611.8
2018-Feb-20 10:00N 37°31' W 009°45'612.2
2018-Feb-20 09:30N 37°37' W 009°47'611.9
2018-Feb-20 09:01N 37°43' W 009°48'611.7
2018-Feb-20 08:31N 37°48' W 009°50'611.9
2018-Feb-20 08:01N 37°54' W 009°51'612.0
2018-Feb-20 07:31N 38°00' W 009°53'612.1
2018-Feb-20 07:00N 38°06' W 009°55'612.2
2018-Feb-20 06:30N 38°12' W 009°56'612.0
2018-Feb-20 06:00N 38°18' W 009°58'612.0
2018-Feb-20 05:30N 38°24' W 009°60'612.1
2018-Feb-20 05:00N 38°30' W 010°01'612.2
2018-Feb-20 04:30N 38°36' W 010°03'611.7
2018-Feb-20 04:01N 38°41' W 010°05'611.6
2018-Feb-20 03:30N 38°47' W 010°05'611.7
2018-Feb-20 02:59N 38°53' W 010°05'611.5
2018-Feb-20 02:30N 38°59' W 010°05'611.8
2018-Feb-20 02:01N 39°05' W 010°05'611.9
2018-Feb-20 01:31N 39°11' W 010°05'611.9
2018-Feb-20 01:00N 39°17' W 010°05'314 9.0
2018-Feb-18 13:58N 43°43' W 006°24'611.2
2018-Feb-18 13:28N 43°44' W 006°16'511.0
2018-Feb-18 13:00N 43°43' W 006°09'611.0
2018-Feb-18 12:30N 43°43' W 006°02'610.9
2018-Feb-18 11:59N 43°44' W 005°54'510.4
2018-Feb-18 11:30N 43°44' W 005°47'510.2
2018-Feb-18 10:59N 43°44' W 005°40'510.7
2018-Feb-18 10:30N 43°43' W 005°33'610.9
2018-Feb-18 10:00N 43°42' W 005°25'510.7
2018-Feb-18 09:30N 43°42' W 005°18'510.9
2018-Feb-18 09:00N 43°41' W 005°10'510.9
2018-Feb-18 08:30N 43°41' W 005°03'5510.7
2018-Feb-18 03:22N 43°35' W 003°47'410.4
2018-Feb-18 03:00N 43°35' W 003°42'510.4
2018-Feb-18 02:30N 43°35' W 003°35'510.1
2018-Feb-18 02:01N 43°35' W 003°28'510.0
2018-Feb-18 01:30N 43°33' W 003°22'510.4
2018-Feb-18 01:00N 43°30' W 003°16'510.4
2018-Feb-18 00:30N 43°27' W 003°11'510.8
2018-Feb-18 00:01N 43°23' W 003°05'3 5.5
2018-Feb-17 23:30N 43°21' W 003°03'0 0.2
2018-Feb-17 22:58N 43°21' W 003°03'0 0.0
2018-Feb-17 22:28N 43°21' W 003°03'0 0.0
2018-Feb-17 21:58N 43°21' W 003°03'0 0.0
2018-Feb-17 21:28N 43°21' W 003°03'0 0.0
2018-Feb-17 20:58N 43°21' W 003°03'0 0.0
2018-Feb-17 20:28N 43°21' W 003°03'0 0.0
2018-Feb-17 19:58N 43°21' W 003°03'0 0.0
2018-Feb-17 19:28N 43°21' W 003°03'0 0.0
2018-Feb-17 18:58N 43°21' W 003°03'0 0.0
2018-Feb-17 18:28N 43°21' W 003°03'0 0.0
2018-Feb-17 17:58N 43°21' W 003°03'0 0.0
2018-Feb-17 17:28N 43°21' W 003°03'0 0.0
2018-Feb-17 16:58N 43°21' W 003°03'0 0.0
2018-Feb-17 16:28N 43°21' W 003°03'0 0.0
2018-Feb-17 15:58N 43°21' W 003°03'0 0.0
2018-Feb-17 15:28N 43°21' W 003°03'0 0.0
2018-Feb-17 14:58N 43°21' W 003°03'0 0.0
2018-Feb-17 14:28N 43°21' W 003°03'0 0.0
2018-Feb-17 13:58N 43°21' W 003°03'0 0.0
2018-Feb-17 13:25N 43°21' W 003°03'0 0.0
2018-Feb-17 12:58N 43°21' W 003°03'0 0.0
2018-Feb-17 12:28N 43°21' W 003°03'0 0.0
2018-Feb-17 11:58N 43°21' W 003°03'0 0.0
2018-Feb-17 11:28N 43°21' W 003°03'0 0.0
2018-Feb-17 10:55N 43°21' W 003°03'0 0.0
2018-Feb-17 10:28N 43°21' W 003°03'0 0.0
2018-Feb-17 09:58N 43°21' W 003°03'0 0.0
2018-Feb-17 09:28N 43°21' W 003°03'0 0.0
2018-Feb-17 08:58N 43°21' W 003°03'0 0.0
2018-Feb-17 08:25N 43°21' W 003°03'0 0.0
2018-Feb-17 07:58N 43°21' W 003°03'0 0.0
2018-Feb-17 07:28N 43°21' W 003°03'0 0.0
2018-Feb-17 06:58N 43°21' W 003°03'0 0.0
2018-Feb-17 06:28N 43°21' W 003°03'0 0.0
2018-Feb-17 05:58N 43°21' W 003°03'0 0.0
2018-Feb-17 05:28N 43°21' W 003°03'0 0.0
2018-Feb-17 04:58N 43°21' W 003°03'0 0.0
2018-Feb-17 04:28N 43°21' W 003°03'0 0.0
2018-Feb-17 03:58N 43°21' W 003°03'0 0.0
2018-Feb-17 03:28N 43°21' W 003°03'0 0.0
2018-Feb-17 02:58N 43°21' W 003°03'0 0.0
2018-Feb-17 02:28N 43°21' W 003°03'0 0.0
2018-Feb-17 01:58N 43°21' W 003°03'0 0.0
2018-Feb-17 01:28N 43°21' W 003°03'0 0.0
2018-Feb-17 00:58N 43°21' W 003°03'0 0.0
2018-Feb-17 00:28N 43°21' W 003°03'0 0.0
2018-Feb-16 23:58N 43°21' W 003°03'0 0.0
2018-Feb-16 23:28N 43°21' W 003°03'0 0.0
2018-Feb-16 22:58N 43°21' W 003°03'0 0.0
2018-Feb-16 22:28N 43°21' W 003°03'0 0.0
2018-Feb-16 21:58N 43°21' W 003°03'0 0.0
2018-Feb-16 21:28N 43°21' W 003°03'0 0.0
2018-Feb-16 20:58N 43°21' W 003°03'0 0.0
2018-Feb-16 20:25N 43°21' W 003°03'0 0.0
2018-Feb-16 19:58N 43°21' W 003°03'0 0.0
2018-Feb-16 19:28N 43°21' W 003°03'0 0.0
2018-Feb-16 18:58N 43°21' W 003°03'0 0.0
2018-Feb-16 18:28N 43°21' W 003°03'0 0.0
2018-Feb-16 17:58N 43°21' W 003°03'0 0.0
2018-Feb-16 17:28N 43°21' W 003°03'0 0.0
2018-Feb-16 16:58N 43°21' W 003°03'0 0.0
2018-Feb-16 16:25N 43°21' W 003°03'0 0.0
2018-Feb-16 15:58N 43°21' W 003°03'0 0.0
2018-Feb-16 15:28N 43°21' W 003°03'0 0.0
2018-Feb-16 14:58N 43°21' W 003°03'0 0.0
2018-Feb-16 14:28N 43°21' W 003°03'0 0.0
2018-Feb-16 13:58N 43°21' W 003°03'0 0.0
2018-Feb-16 13:28N 43°21' W 003°03'0 0.0
2018-Feb-16 12:58N 43°21' W 003°03'0 0.0
2018-Feb-16 12:25N 43°21' W 003°03'0 0.0
2018-Feb-16 11:58N 43°21' W 003°03'0 0.0
2018-Feb-16 11:28N 43°21' W 003°03'0 0.0
2018-Feb-16 10:58N 43°21' W 003°03'0 0.0
2018-Feb-16 10:28N 43°21' W 003°03'0 0.0
2018-Feb-16 09:58N 43°21' W 003°03'0 0.0
2018-Feb-16 09:28N 43°21' W 003°03'0 0.0
2018-Feb-16 08:58N 43°21' W 003°03'0 0.0
2018-Feb-16 08:28N 43°21' W 003°03'0 0.0
2018-Feb-16 07:58N 43°21' W 003°03'0 0.0
2018-Feb-16 07:28N 43°21' W 003°03'0 0.0
2018-Feb-16 06:58N 43°21' W 003°03'0 0.0
2018-Feb-16 06:28N 43°21' W 003°03'0 0.0
2018-Feb-16 05:58N 43°21' W 003°03'0 0.0
2018-Feb-16 05:28N 43°21' W 003°03'0 0.0
2018-Feb-16 04:55N 43°21' W 003°03'0 0.0
2018-Feb-16 04:28N 43°21' W 003°03'0 0.0
2018-Feb-16 03:58N 43°21' W 003°03'0 0.0
2018-Feb-16 03:28N 43°21' W 003°03'0 0.0
2018-Feb-16 02:58N 43°21' W 003°03'0 0.0
2018-Feb-16 02:31N 43°21' W 003°03'1 2.5
2018-Feb-16 02:01N 43°22' W 003°03'4 8.7
2018-Feb-16 01:31N 43°25' W 003°08'612.0
2018-Feb-16 01:01N 43°29' W 003°14'713.3
2018-Feb-16 00:30N 43°33' W 003°21'714.8
2018-Feb-16 00:00N 43°35' W 003°31'714.8
2018-Feb-15 23:30N 43°36' W 003°41'815.0
2018-Feb-15 23:00N 43°36' W 003°51'4514.6
2018-Feb-15 19:56N 43°40' W 004°53'914.6
2018-Feb-15 19:19N 43°42' W 005°05'1714.3
2018-Feb-15 18:09N 43°44' W 005°28'214.5
2018-Feb-15 18:00N 43°44' W 005°31'714.4
2018-Feb-15 17:30N 43°45' W 005°41'714.1
2018-Feb-15 16:59N 43°45' W 005°51'714.2
2018-Feb-15 16:29N 43°44' W 006°01'30710.9
2018-Feb-14 12:19N 39°30' W 009°52'613.3
2018-Feb-14 11:53N 39°25' W 009°52'513.4
2018-Feb-14 11:30N 39°19' W 009°52'713.6
2018-Feb-14 10:58N 39°12' W 009°52'613.7
2018-Feb-14 10:31N 39°06' W 009°52'713.4
2018-Feb-14 10:00N 38°59' W 009°52'713.7
2018-Feb-14 09:30N 38°52' W 009°52'713.7
2018-Feb-14 09:00N 38°46' W 009°51'713.6
2018-Feb-14 08:30N 38°39' W 009°50'713.4
2018-Feb-14 08:00N 38°32' W 009°48'713.5
2018-Feb-14 07:30N 38°26' W 009°46'713.4
2018-Feb-14 07:00N 38°19' W 009°45'713.2
2018-Feb-14 06:30N 38°13' W 009°43'1013.2
2018-Feb-14 05:44N 38°03' W 009°40'1513.5
2018-Feb-14 04:36N 37°48' W 009°36'22312.6
2018-Feb-13 10:58N 35°59' W 005°33'613.2
2018-Feb-13 10:30N 36°01' W 005°26'8 3.8
2018-Feb-13 08:17N 36°09' W 005°25'0 0.0
2018-Feb-13 07:59N 36°09' W 005°25'0 0.0
2018-Feb-13 07:08N 36°09' W 005°25'0 0.0
2018-Feb-13 06:59N 36°09' W 005°25'0 0.1
2018-Feb-13 06:26N 36°09' W 005°25'0 0.1
2018-Feb-13 05:59N 36°09' W 005°25'0 0.0
2018-Feb-13 05:29N 36°09' W 005°25'0 0.1
2018-Feb-13 04:56N 36°09' W 005°25'0 0.0
2018-Feb-13 04:29N 36°09' W 005°25'0 0.1
2018-Feb-13 03:59N 36°09' W 005°25'0 0.1
2018-Feb-13 03:29N 36°09' W 005°25'0 0.0
2018-Feb-13 02:59N 36°09' W 005°25'0 0.0
2018-Feb-13 02:29N 36°09' W 005°25'0 0.0
2018-Feb-13 01:59N 36°09' W 005°25'0 0.0
2018-Feb-13 01:29N 36°09' W 005°25'0 0.0
2018-Feb-13 00:56N 36°09' W 005°25'0 0.0
2018-Feb-13 00:26N 36°09' W 005°25'0 0.0
2018-Feb-12 23:59N 36°09' W 005°25'0 0.0
2018-Feb-12 23:29N 36°09' W 005°25'0 0.1
2018-Feb-12 22:59N 36°09' W 005°25'0 0.0
2018-Feb-12 22:26N 36°09' W 005°25'0 0.1
2018-Feb-12 21:59N 36°09' W 005°25'0 0.0
2018-Feb-12 21:29N 36°09' W 005°25'0 0.0
2018-Feb-12 20:56N 36°09' W 005°25'0 0.0
2018-Feb-12 20:29N 36°09' W 005°25'0 0.0
2018-Feb-12 19:56N 36°09' W 005°25'0 0.1
2018-Feb-12 19:26N 36°09' W 005°25'0 0.0
2018-Feb-12 17:20N 36°09' W 005°25'0 0.2
2018-Feb-12 16:57N 36°09' W 005°25'2 0.8
2018-Feb-12 14:57N 36°08' W 005°25'0 0.0
2018-Feb-12 14:06N 36°08' W 005°25'0 0.0
2018-Feb-12 14:00N 36°08' W 005°25'0 0.0
2018-Feb-12 13:21N 36°08' W 005°25'0 0.0
2018-Feb-12 13:00N 36°08' W 005°25'0 0.0
2018-Feb-12 12:30N 36°08' W 005°25'0 0.0
2018-Feb-12 12:00N 36°08' W 005°25'0 0.0
2018-Feb-12 11:30N 36°08' W 005°25'0 0.0
2018-Feb-12 11:00N 36°08' W 005°25'0 0.0
2018-Feb-12 10:21N 36°08' W 005°25'0 0.0
2018-Feb-12 10:00N 36°08' W 005°25'0 0.0
2018-Feb-12 09:18N 36°08' W 005°25'0 0.0
2018-Feb-12 09:00N 36°08' W 005°25'0 0.0
2018-Feb-12 08:30N 36°08' W 005°25'2 3.9
2018-Feb-12 08:00N 36°09' W 005°25'0 0.1
2018-Feb-12 06:33N 36°09' W 005°25'0 0.0
2018-Feb-12 06:15N 36°09' W 005°25'0 0.0
2018-Feb-12 05:57N 36°09' W 005°25'0 0.0
2018-Feb-12 05:27N 36°09' W 005°25'0 0.1
2018-Feb-12 04:57N 36°09' W 005°25'0 0.0
2018-Feb-12 04:27N 36°09' W 005°25'0 0.0
2018-Feb-12 04:00N 36°09' W 005°25'0 0.0
2018-Feb-12 03:27N 36°09' W 005°25'0 0.0
2018-Feb-12 03:00N 36°09' W 005°25'0 0.1
2018-Feb-12 02:27N 36°09' W 005°25'0 0.1
2018-Feb-12 02:00N 36°09' W 005°25'0 0.1
2018-Feb-12 01:27N 36°09' W 005°25'0 0.0
2018-Feb-12 01:00N 36°09' W 005°25'0 0.1
2018-Feb-12 00:27N 36°09' W 005°25'0 0.1
2018-Feb-11 23:51N 36°09' W 005°25'0 0.0
2018-Feb-11 23:09N 36°09' W 005°25'0 0.2
2018-Feb-11 23:00N 36°09' W 005°25'0 0.1
2018-Feb-11 22:27N 36°09' W 005°25'0 0.0
2018-Feb-11 21:51N 36°09' W 005°25'0 0.1
2018-Feb-11 21:24N 36°09' W 005°25'0 0.1
2018-Feb-11 20:57N 36°09' W 005°25'0 0.1
2018-Feb-11 20:27N 36°09' W 005°25'0 0.1
2018-Feb-11 19:45N 36°09' W 005°25'0 0.1
2018-Feb-11 19:27N 36°09' W 005°25'0 0.0
2018-Feb-11 18:57N 36°09' W 005°25'0 0.0
2018-Feb-11 18:30N 36°09' W 005°25'0 0.1
2018-Feb-11 18:00N 36°09' W 005°25'0 0.0
2018-Feb-11 17:24N 36°09' W 005°25'0 0.0
2018-Feb-11 16:51N 36°09' W 005°25'0 0.0
2018-Feb-11 16:27N 36°09' W 005°25'0 0.1
2018-Feb-11 15:45N 36°09' W 005°25'0 0.0
2018-Feb-11 15:27N 36°09' W 005°25'0 0.0
2018-Feb-11 14:51N 36°09' W 005°25'0 0.1
2018-Feb-11 14:30N 36°09' W 005°25'0 0.0
2018-Feb-11 14:00N 36°09' W 005°25'0 0.0
2018-Feb-11 13:24N 36°09' W 005°25'0 0.1
2018-Feb-11 12:57N 36°09' W 005°25'0 0.1
2018-Feb-11 12:30N 36°09' W 005°25'0 0.2
2018-Feb-11 11:51N 36°10' W 005°25'  
Track history (hours):
 
Tides and Currents Weather Stations Pressure Air Temp Water Temp Dewpoint Dewpoint Depression Visibility Wind Speed Wind Dir Waves Ship Positions

Boxy Lady

Last reported at 2018-Feb-21 11:49 UTC. Time now 2018-Feb-21 15:46 UTC.
Position N 36°10' W 005°25'.

Length 159 m; draft 10.2 m.

Type: Ship. MMSI: 249715000.

Date/timePositionNaut miles runAvg speedWind from/ knotsBaromVisibWave heightAir tempDewpointWater temp
2018-Feb-21 11:49N 36°10' W 005°25'0 0.0
2018-Feb-21 11:16N 36°10' W 005°25'0 0.0
2018-Feb-21 10:58N 36°10' W 005°25'0 0.0
2018-Feb-21 10:22N 36°10' W 005°25'0 1.0
2018-Feb-21 10:00N 36°09' W 005°25'2 4.8
2018-Feb-21 09:30N 36°07' W 005°24'5 9.0
2018-Feb-21 09:00N 36°03' W 005°21'1 1.8
2018-Feb-21 08:30N 36°03' W 005°22'5 9.5
2018-Feb-21 07:58N 35°59' W 005°25'12112.6
2018-Feb-20 22:20N 36°21' W 007°53'36 8.5
2018-Feb-20 18:08N 36°25' W 008°37'412.1
2018-Feb-20 17:48N 36°26' W 008°42'411.9
2018-Feb-20 17:30N 36°27' W 008°46'611.8
2018-Feb-20 16:59N 36°29' W 008°53'611.7
2018-Feb-20 16:30N 36°31' W 009°00'611.8
2018-Feb-20 16:01N 36°32' W 009°07'611.7
2018-Feb-20 15:30N 36°34' W 009°14'2311.3
2018-Feb-20 13:28N 36°51' W 009°33'711.7
2018-Feb-20 12:51N 36°58' W 009°35'512.2
2018-Feb-20 12:28N 37°03' W 009°36'511.8
2018-Feb-20 12:01N 37°08' W 009°37'611.7
2018-Feb-20 11:30N 37°14' W 009°39'611.8
2018-Feb-20 11:00N 37°20' W 009°41'611.8
2018-Feb-20 10:29N 37°26' W 009°43'611.8
2018-Feb-20 10:00N 37°31' W 009°45'612.2
2018-Feb-20 09:30N 37°37' W 009°47'611.9
2018-Feb-20 09:01N 37°43' W 009°48'611.7
2018-Feb-20 08:31N 37°48' W 009°50'611.9
2018-Feb-20 08:01N 37°54' W 009°51'612.0
2018-Feb-20 07:31N 38°00' W 009°53'612.1
2018-Feb-20 07:00N 38°06' W 009°55'612.2
2018-Feb-20 06:30N 38°12' W 009°56'612.0
2018-Feb-20 06:00N 38°18' W 009°58'612.0
2018-Feb-20 05:30N 38°24' W 009°60'612.1
2018-Feb-20 05:00N 38°30' W 010°01'612.2
2018-Feb-20 04:30N 38°36' W 010°03'611.7
2018-Feb-20 04:01N 38°41' W 010°05'611.6
2018-Feb-20 03:30N 38°47' W 010°05'611.7
2018-Feb-20 02:59N 38°53' W 010°05'611.5
2018-Feb-20 02:30N 38°59' W 010°05'611.8
2018-Feb-20 02:01N 39°05' W 010°05'611.9
2018-Feb-20 01:31N 39°11' W 010°05'611.9
2018-Feb-20 01:00N 39°17' W 010°05'314 9.0
2018-Feb-18 13:58N 43°43' W 006°24'611.2
2018-Feb-18 13:28N 43°44' W 006°16'511.0
2018-Feb-18 13:00N 43°43' W 006°09'611.0
2018-Feb-18 12:30N 43°43' W 006°02'610.9
2018-Feb-18 11:59N 43°44' W 005°54'510.4
2018-Feb-18 11:30N 43°44' W 005°47'510.2
2018-Feb-18 10:59N 43°44' W 005°40'510.7
2018-Feb-18 10:30N 43°43' W 005°33'610.9
2018-Feb-18 10:00N 43°42' W 005°25'510.7
2018-Feb-18 09:30N 43°42' W 005°18'510.9
2018-Feb-18 09:00N 43°41' W 005°10'510.9
2018-Feb-18 08:30N 43°41' W 005°03'5510.7
2018-Feb-18 03:22N 43°35' W 003°47'410.4
2018-Feb-18 03:00N 43°35' W 003°42'510.4
2018-Feb-18 02:30N 43°35' W 003°35'510.1
2018-Feb-18 02:01N 43°35' W 003°28'510.0
2018-Feb-18 01:30N 43°33' W 003°22'510.4
2018-Feb-18 01:00N 43°30' W 003°16'510.4
2018-Feb-18 00:30N 43°27' W 003°11'510.8
2018-Feb-18 00:01N 43°23' W 003°05'3 5.5
2018-Feb-17 23:30N 43°21' W 003°03'0 0.2
2018-Feb-17 22:58N 43°21' W 003°03'0 0.0
2018-Feb-17 22:28N 43°21' W 003°03'0 0.0
2018-Feb-17 21:58N 43°21' W 003°03'0 0.0
2018-Feb-17 21:28N 43°21' W 003°03'0 0.0
2018-Feb-17 20:58N 43°21' W 003°03'0 0.0
2018-Feb-17 20:28N 43°21' W 003°03'0 0.0
2018-Feb-17 19:58N 43°21' W 003°03'0 0.0
2018-Feb-17 19:28N 43°21' W 003°03'0 0.0
2018-Feb-17 18:58N 43°21' W 003°03'0 0.0
2018-Feb-17 18:28N 43°21' W 003°03'0 0.0
2018-Feb-17 17:58N 43°21' W 003°03'0 0.0
2018-Feb-17 17:28N 43°21' W 003°03'0 0.0
2018-Feb-17 16:58N 43°21' W 003°03'0 0.0
2018-Feb-17 16:28N 43°21' W 003°03'0 0.0
2018-Feb-17 15:58N 43°21' W 003°03'0 0.0
2018-Feb-17 15:28N 43°21' W 003°03'0 0.0
2018-Feb-17 14:58N 43°21' W 003°03'0 0.0
2018-Feb-17 14:28N 43°21' W 003°03'0 0.0
2018-Feb-17 13:58N 43°21' W 003°03'0 0.0
2018-Feb-17 13:25N 43°21' W 003°03'0 0.0
2018-Feb-17 12:58N 43°21' W 003°03'0 0.0
2018-Feb-17 12:28N 43°21' W 003°03'0 0.0
2018-Feb-17 11:58N 43°21' W 003°03'0 0.0
2018-Feb-17 11:28N 43°21' W 003°03'0 0.0
2018-Feb-17 10:55N 43°21' W 003°03'0 0.0
2018-Feb-17 10:28N 43°21' W 003°03'0 0.0
2018-Feb-17 09:58N 43°21' W 003°03'0 0.0
2018-Feb-17 09:28N 43°21' W 003°03'0 0.0
2018-Feb-17 08:58N 43°21' W 003°03'0 0.0
2018-Feb-17 08:25N 43°21' W 003°03'0 0.0
2018-Feb-17 07:58N 43°21' W 003°03'0 0.0
2018-Feb-17 07:28N 43°21' W 003°03'0 0.0
2018-Feb-17 06:58N 43°21' W 003°03'0 0.0
2018-Feb-17 06:28N 43°21' W 003°03'0 0.0
2018-Feb-17 05:58N 43°21' W 003°03'0 0.0
2018-Feb-17 05:28N 43°21' W 003°03'0 0.0
2018-Feb-17 04:58N 43°21' W 003°03'0 0.0
2018-Feb-17 04:28N 43°21' W 003°03'0 0.0
2018-Feb-17 03:58N 43°21' W 003°03'0 0.0
2018-Feb-17 03:28N 43°21' W 003°03'0 0.0
2018-Feb-17 02:58N 43°21' W 003°03'0 0.0
2018-Feb-17 02:28N 43°21' W 003°03'0 0.0
2018-Feb-17 01:58N 43°21' W 003°03'0 0.0
2018-Feb-17 01:28N 43°21' W 003°03'0 0.0
2018-Feb-17 00:58N 43°21' W 003°03'0 0.0
2018-Feb-17 00:28N 43°21' W 003°03'0 0.0
2018-Feb-16 23:58N 43°21' W 003°03'0 0.0
2018-Feb-16 23:28N 43°21' W 003°03'0 0.0
2018-Feb-16 22:58N 43°21' W 003°03'0 0.0
2018-Feb-16 22:28N 43°21' W 003°03'0 0.0
2018-Feb-16 21:58N 43°21' W 003°03'0 0.0
2018-Feb-16 21:28N 43°21' W 003°03'0 0.0
2018-Feb-16 20:58N 43°21' W 003°03'0 0.0
2018-Feb-16 20:25N 43°21' W 003°03'0 0.0
2018-Feb-16 19:58N 43°21' W 003°03'0 0.0
2018-Feb-16 19:28N 43°21' W 003°03'0 0.0
2018-Feb-16 18:58N 43°21' W 003°03'0 0.0
2018-Feb-16 18:28N 43°21' W 003°03'0 0.0
2018-Feb-16 17:58N 43°21' W 003°03'0 0.0
2018-Feb-16 17:28N 43°21' W 003°03'0 0.0
2018-Feb-16 16:58N 43°21' W 003°03'0 0.0
2018-Feb-16 16:25N 43°21' W 003°03'0 0.0
2018-Feb-16 15:58N 43°21' W 003°03'0 0.0
2018-Feb-16 15:28N 43°21' W 003°03'0 0.0
2018-Feb-16 14:58N 43°21' W 003°03'0 0.0
2018-Feb-16 14:28N 43°21' W 003°03'0 0.0
2018-Feb-16 13:58N 43°21' W 003°03'0 0.0
2018-Feb-16 13:28N 43°21' W 003°03'0 0.0
2018-Feb-16 12:58N 43°21' W 003°03'0 0.0
2018-Feb-16 12:25N 43°21' W 003°03'0 0.0
2018-Feb-16 11:58N 43°21' W 003°03'0 0.0
2018-Feb-16 11:28N 43°21' W 003°03'0 0.0
2018-Feb-16 10:58N 43°21' W 003°03'0 0.0
2018-Feb-16 10:28N 43°21' W 003°03'0 0.0
2018-Feb-16 09:58N 43°21' W 003°03'0 0.0
2018-Feb-16 09:28N 43°21' W 003°03'0 0.0
2018-Feb-16 08:58N 43°21' W 003°03'0 0.0
2018-Feb-16 08:28N 43°21' W 003°03'0 0.0
2018-Feb-16 07:58N 43°21' W 003°03'0 0.0
2018-Feb-16 07:28N 43°21' W 003°03'0 0.0
2018-Feb-16 06:58N 43°21' W 003°03'0 0.0
2018-Feb-16 06:28N 43°21' W 003°03'0 0.0
2018-Feb-16 05:58N 43°21' W 003°03'0 0.0
2018-Feb-16 05:28N 43°21' W 003°03'0 0.0
2018-Feb-16 04:55N 43°21' W 003°03'0 0.0
2018-Feb-16 04:28N 43°21' W 003°03'0 0.0
2018-Feb-16 03:58N 43°21' W 003°03'0 0.0
2018-Feb-16 03:28N 43°21' W 003°03'0 0.0
2018-Feb-16 02:58N 43°21' W 003°03'0 0.0
2018-Feb-16 02:31N 43°21' W 003°03'1 2.5
2018-Feb-16 02:01N 43°22' W 003°03'4 8.7
2018-Feb-16 01:31N 43°25' W 003°08'612.0
2018-Feb-16 01:01N 43°29' W 003°14'713.3
2018-Feb-16 00:30N 43°33' W 003°21'714.8
2018-Feb-16 00:00N 43°35' W 003°31'714.8
2018-Feb-15 23:30N 43°36' W 003°41'815.0
2018-Feb-15 23:00N 43°36' W 003°51'4514.6
2018-Feb-15 19:56N 43°40' W 004°53'914.6
2018-Feb-15 19:19N 43°42' W 005°05'1714.3
2018-Feb-15 18:09N 43°44' W 005°28'214.5
2018-Feb-15 18:00N 43°44' W 005°31'714.4
2018-Feb-15 17:30N 43°45' W 005°41'714.1
2018-Feb-15 16:59N 43°45' W 005°51'714.2
2018-Feb-15 16:29N 43°44' W 006°01'30710.9
2018-Feb-14 12:19N 39°30' W 009°52'613.3
2018-Feb-14 11:53N 39°25' W 009°52'513.4
2018-Feb-14 11:30N 39°19' W 009°52'713.6
2018-Feb-14 10:58N 39°12' W 009°52'613.7
2018-Feb-14 10:31N 39°06' W 009°52'713.4
2018-Feb-14 10:00N 38°59' W 009°52'713.7
2018-Feb-14 09:30N 38°52' W 009°52'713.7
2018-Feb-14 09:00N 38°46' W 009°51'713.6
2018-Feb-14 08:30N 38°39' W 009°50'713.4
2018-Feb-14 08:00N 38°32' W 009°48'713.5
2018-Feb-14 07:30N 38°26' W 009°46'713.4
2018-Feb-14 07:00N 38°19' W 009°45'713.2
2018-Feb-14 06:30N 38°13' W 009°43'1013.2
2018-Feb-14 05:44N 38°03' W 009°40'1513.5
2018-Feb-14 04:36N 37°48' W 009°36'22312.6
2018-Feb-13 10:58N 35°59' W 005°33'613.2
2018-Feb-13 10:30N 36°01' W 005°26'8 3.8
2018-Feb-13 08:17N 36°09' W 005°25'0 0.0
2018-Feb-13 07:59N 36°09' W 005°25'0 0.0
2018-Feb-13 07:08N 36°09' W 005°25'0 0.0
2018-Feb-13 06:59N 36°09' W 005°25'0 0.1
2018-Feb-13 06:26N 36°09' W 005°25'0 0.1
2018-Feb-13 05:59N 36°09' W 005°25'0 0.0
2018-Feb-13 05:29N 36°09' W 005°25'0 0.1
2018-Feb-13 04:56N 36°09' W 005°25'0 0.0
2018-Feb-13 04:29N 36°09' W 005°25'0 0.1
2018-Feb-13 03:59N 36°09' W 005°25'0 0.1
2018-Feb-13 03:29N 36°09' W 005°25'0 0.0
2018-Feb-13 02:59N 36°09' W 005°25'0 0.0
2018-Feb-13 02:29N 36°09' W 005°25'0 0.0
2018-Feb-13 01:59N 36°09' W 005°25'0 0.0
2018-Feb-13 01:29N 36°09' W 005°25'0 0.0
2018-Feb-13 00:56N 36°09' W 005°25'0 0.0
2018-Feb-13 00:26N 36°09' W 005°25'0 0.0
2018-Feb-12 23:59N 36°09' W 005°25'0 0.0
2018-Feb-12 23:29N 36°09' W 005°25'0 0.1
2018-Feb-12 22:59N 36°09' W 005°25'0 0.0
2018-Feb-12 22:26N 36°09' W 005°25'0 0.1
2018-Feb-12 21:59N 36°09' W 005°25'0 0.0
2018-Feb-12 21:29N 36°09' W 005°25'0 0.0
2018-Feb-12 20:56N 36°09' W 005°25'0 0.0
2018-Feb-12 20:29N 36°09' W 005°25'0 0.0
2018-Feb-12 19:56N 36°09' W 005°25'0 0.1
2018-Feb-12 19:26N 36°09' W 005°25'0 0.0
2018-Feb-12 17:20N 36°09' W 005°25'0 0.2
2018-Feb-12 16:57N 36°09' W 005°25'2 0.8
2018-Feb-12 14:57N 36°08' W 005°25'0 0.0
2018-Feb-12 14:06N 36°08' W 005°25'0 0.0
2018-Feb-12 14:00N 36°08' W 005°25'0 0.0
2018-Feb-12 13:21N 36°08' W 005°25'0 0.0
2018-Feb-12 13:00N 36°08' W 005°25'0 0.0
2018-Feb-12 12:30N 36°08' W 005°25'0 0.0
2018-Feb-12 12:00N 36°08' W 005°25'0 0.0
2018-Feb-12 11:30N 36°08' W 005°25'0 0.0
2018-Feb-12 11:00N 36°08' W 005°25'0 0.0
2018-Feb-12 10:21N 36°08' W 005°25'0 0.0
2018-Feb-12 10:00N 36°08' W 005°25'0 0.0
2018-Feb-12 09:18N 36°08' W 005°25'0 0.0
2018-Feb-12 09:00N 36°08' W 005°25'0 0.0
2018-Feb-12 08:30N 36°08' W 005°25'2 3.9
2018-Feb-12 08:00N 36°09' W 005°25'0 0.1
2018-Feb-12 06:33N 36°09' W 005°25'0 0.0
2018-Feb-12 06:15N 36°09' W 005°25'0 0.0
2018-Feb-12 05:57N 36°09' W 005°25'0 0.0
2018-Feb-12 05:27N 36°09' W 005°25'0 0.1
2018-Feb-12 04:57N 36°09' W 005°25'0 0.0
2018-Feb-12 04:27N 36°09' W 005°25'0 0.0
2018-Feb-12 04:00N 36°09' W 005°25'0 0.0
2018-Feb-12 03:27N 36°09' W 005°25'0 0.0
2018-Feb-12 03:00N 36°09' W 005°25'0 0.1
2018-Feb-12 02:27N 36°09' W 005°25'0 0.1
2018-Feb-12 02:00N 36°09' W 005°25'0 0.1
2018-Feb-12 01:27N 36°09' W 005°25'0 0.0
2018-Feb-12 01:00N 36°09' W 005°25'0 0.1
2018-Feb-12 00:27N 36°09' W 005°25'0 0.1
2018-Feb-11 23:51N 36°09' W 005°25'0 0.0
2018-Feb-11 23:09N 36°09' W 005°25'0 0.2
2018-Feb-11 23:00N 36°09' W 005°25'0 0.1
2018-Feb-11 22:27N 36°09' W 005°25'0 0.0
2018-Feb-11 21:51N 36°09' W 005°25'0 0.1
2018-Feb-11 21:24N 36°09' W 005°25'0 0.1
2018-Feb-11 20:57N 36°09' W 005°25'0 0.1
2018-Feb-11 20:27N 36°09' W 005°25'0 0.1
2018-Feb-11 19:45N 36°09' W 005°25'0 0.1
2018-Feb-11 19:27N 36°09' W 005°25'0 0.0
2018-Feb-11 18:57N 36°09' W 005°25'0 0.0
2018-Feb-11 18:30N 36°09' W 005°25'0 0.1
2018-Feb-11 18:00N 36°09' W 005°25'0 0.0
2018-Feb-11 17:24N 36°09' W 005°25'0 0.0
2018-Feb-11 16:51N 36°09' W 005°25'0 0.0
2018-Feb-11 16:27N 36°09' W 005°25'0 0.1
2018-Feb-11 15:45N 36°09' W 005°25'0 0.0
2018-Feb-11 15:27N 36°09' W 005°25'0 0.0
2018-Feb-11 14:51N 36°09' W 005°25'0 0.1
2018-Feb-11 14:30N 36°09' W 005°25'0 0.0
2018-Feb-11 14:00N 36°09' W 005°25'0 0.0
2018-Feb-11 13:24N 36°09' W 005°25'0 0.1
2018-Feb-11 12:57N 36°09' W 005°25'0 0.1
2018-Feb-11 12:30N 36°09' W 005°25'0 0.2
2018-Feb-11 11:51N 36°10' W 005°25'  

Dump ship's entire track history